Time;durP1;ratioP1;P1;durP2;ratioP2;P2;SDS_P1;SDS_P2;PMS_P1;PMS_P2;Temp;Humidity;BMP_temperature;BMP_pressure;BME280_temperature;BME280_humidity;BME280_pressure;Samples;Min_cycle;Max_cycle;Signal;HPM_P1;HPM_P2
2023/05/05 00:01:11;;;;;;;5.17;2.80;;;13.10;99.90;;;;;;4967121;28;20196;-67
2023/05/05 00:03:36;;;;;;;5.87;3.10;;;13.00;99.90;;;;;;4965175;28;20189;-67
2023/05/05 00:06:03;;;;;;;5.57;3.10;;;12.90;99.90;;;;;;4969829;28;20217;-67
2023/05/05 00:08:28;;;;;;;5.20;3.20;;;12.90;99.90;;;;;;4972018;28;20180;-68
2023/05/05 00:10:55;;;;;;;5.83;3.83;;;12.80;99.90;;;;;;4971460;28;20423;-68
2023/05/05 00:13:21;;;;;;;4.90;2.97;;;12.70;99.90;;;;;;4970539;28;20193;-68
2023/05/05 00:15:48;;;;;;;5.37;2.93;;;12.70;99.90;;;;;;4971509;28;20431;-68
2023/05/05 00:18:16;;;;;;;5.60;3.63;;;12.70;99.90;;;;;;4971885;28;20242;-68
2023/05/05 00:20:42;;;;;;;8.93;3.80;;;12.60;99.90;;;;;;4965335;28;20452;-68
2023/05/05 00:23:08;;;;;;;7.70;3.13;;;12.60;99.90;;;;;;4955247;28;20425;-68
2023/05/05 00:25:34;;;;;;;5.90;3.90;;;12.60;99.90;;;;;;4969445;28;20455;-66
2023/05/05 00:27:59;;;;;;;4.70;2.87;;;12.60;99.90;;;;;;4970155;28;20545;-67
2023/05/05 00:30:26;;;;;;;6.50;3.70;;;12.60;99.90;;;;;;4971380;28;20188;-66
2023/05/05 00:32:53;;;;;;;4.73;3.07;;;12.50;99.90;;;;;;4964808;28;20220;-66
2023/05/05 00:35:18;;;;;;;6.97;3.70;;;12.50;99.90;;;;;;4955786;28;20446;-66
2023/05/05 00:37:44;;;;;;;5.23;3.10;;;12.40;99.90;;;;;;4965203;28;20553;-66
2023/05/05 00:40:11;;;;;;;5.30;3.20;;;12.40;99.90;;;;;;4971062;28;20188;-66
2023/05/05 00:42:40;;;;;;;7.63;3.47;;;12.40;99.90;;;;;;4971015;28;20694;-66
2023/05/05 00:45:07;;;;;;;5.97;3.63;;;12.30;99.90;;;;;;4969965;28;20977;-66
2023/05/05 00:47:33;;;;;;;4.73;3.17;;;12.30;99.90;;;;;;4974207;28;20467;-66
2023/05/05 00:49:59;;;;;;;7.73;3.60;;;12.30;99.90;;;;;;4974346;28;20438;-67
2023/05/05 00:52:25;;;;;;;6.80;3.30;;;12.30;99.90;;;;;;4967194;28;20240;-66
2023/05/05 00:54:51;;;;;;;7.80;4.33;;;12.20;99.90;;;;;;4974566;28;20263;-66
2023/05/05 00:57:17;;;;;;;5.63;3.63;;;12.20;99.90;;;;;;4974394;28;20419;-66
2023/05/05 00:59:43;;;;;;;5.57;3.40;;;12.20;99.90;;;;;;4965364;28;20491;-66
2023/05/05 01:02:09;;;;;;;7.00;3.17;;;12.10;99.90;;;;;;4970918;28;20993;-66
2023/05/05 01:04:35;;;;;;;8.70;3.97;;;12.10;99.90;;;;;;4967393;28;20423;-66
2023/05/05 01:07:32;;;;;;;5.83;3.60;;;12.10;99.90;;;;;;4974649;28;20242;-66
2023/05/05 01:10:20;;;;;;;3.67;2.87;;;12.10;99.90;;;;;;4973318;28;20192;-66
2023/05/05 01:13:06;;;;;;;8.27;3.47;;;12.00;99.90;;;;;;4969276;28;20994;-66
2023/05/05 01:15:36;;;;;;;5.33;3.57;;;11.90;99.90;;;;;;4973013;28;20979;-66
2023/05/05 01:18:02;;;;;;;5.37;3.10;;;11.80;99.90;;;;;;4973847;28;20475;-66
2023/05/05 01:20:39;;;;;;;6.00;3.97;;;11.70;99.90;;;;;;4969831;28;20420;-66
2023/05/05 01:23:08;;;;;;;8.13;3.17;;;11.90;99.90;;;;;;4964170;28;20436;-66
2023/05/05 01:25:53;;;;;;;9.80;3.93;;;11.80;99.90;;;;;;4960954;28;20459;-66
2023/05/05 01:28:30;;;;;;;6.13;3.83;;;11.80;99.90;;;;;;4974188;28;20419;-66
2023/05/05 01:31:16;;;;;;;6.97;2.50;;;11.80;99.90;;;;;;4974186;28;20420;-66
2023/05/05 01:33:53;;;;;;;10.27;3.17;;;11.80;99.90;;;;;;4960179;28;20924;-66
2023/05/05 01:36:27;;;;;;;9.73;3.50;;;11.80;99.90;;;;;;4958101;28;20433;-66
2023/05/05 01:38:59;;;;;;;5.47;3.23;;;11.80;99.90;;;;;;4973974;28;20428;-67
2023/05/05 01:41:29;;;;;;;4.63;2.93;;;11.90;99.90;;;;;;4973725;28;20443;-66
2023/05/05 01:43:58;;;;;;;6.23;3.00;;;11.70;99.90;;;;;;4974148;28;20430;-67
2023/05/05 01:46:24;;;;;;;4.87;3.20;;;11.80;99.90;;;;;;4973944;28;20467;-66
2023/05/05 01:48:51;;;;;;;7.07;3.47;;;11.80;99.90;;;;;;4973563;28;20471;-66
2023/05/05 01:51:20;;;;;;;10.60;3.73;;;11.80;99.90;;;;;;4973513;28;20919;-66
2023/05/05 01:53:46;;;;;;;5.00;3.40;;;11.80;99.90;;;;;;4965632;28;20416;-66
2023/05/05 01:56:14;;;;;;;5.40;3.13;;;11.70;99.90;;;;;;4973432;28;20424;-66
2023/05/05 01:58:43;;;;;;;5.53;3.10;;;11.70;99.90;;;;;;4964822;28;20791;-66
2023/05/05 02:01:09;;;;;;;5.60;3.57;;;11.70;99.90;;;;;;4968730;28;20428;-66
2023/05/05 02:03:37;;;;;;;7.40;3.50;;;11.70;99.90;;;;;;4973139;28;21121;-66
2023/05/05 02:06:06;;;;;;;6.90;2.87;;;11.70;99.90;;;;;;4973190;28;20506;-66
2023/05/05 02:08:34;;;;;;;6.47;3.20;;;11.60;99.90;;;;;;4973414;28;20519;-66
2023/05/05 02:11:00;;;;;;;6.60;3.37;;;11.70;99.90;;;;;;4966134;28;20436;-66
2023/05/05 02:13:29;;;;;;;6.10;3.60;;;11.60;99.90;;;;;;4971571;28;20532;-66
2023/05/05 02:15:55;;;;;;;3.40;2.33;;;11.70;99.90;;;;;;4973153;28;20451;-66
2023/05/05 02:18:23;;;;;;;5.73;2.93;;;11.60;99.90;;;;;;4973392;28;21040;-66
2023/05/05 02:20:48;;;;;;;4.40;2.80;;;11.50;99.90;;;;;;4952884;28;20536;-66
2023/05/05 02:23:14;;;;;;;9.33;4.40;;;11.50;99.90;;;;;;4956565;28;20516;-66
2023/05/05 02:25:43;;;;;;;4.53;2.73;;;11.50;99.90;;;;;;4972769;28;20212;-66
2023/05/05 02:28:14;;;;;;;5.67;2.87;;;11.50;99.90;;;;;;4972791;28;20770;-66
2023/05/05 02:30:41;;;;;;;4.83;2.97;;;11.50;99.90;;;;;;4972895;28;20419;-66
2023/05/05 02:33:10;;;;;;;5.53;2.70;;;11.50;99.90;;;;;;4962804;28;20440;-66
2023/05/05 02:35:39;;;;;;;6.00;3.13;;;11.50;99.90;;;;;;4957781;28;20424;-66
2023/05/05 02:38:11;;;;;;;4.60;2.60;;;11.60;99.90;;;;;;4969580;28;20432;-67
2023/05/05 02:40:39;;;;;;;10.30;3.17;;;11.60;99.90;;;;;;4967147;28;21119;-66
2023/05/05 02:43:08;;;;;;;4.53;2.80;;;11.70;99.90;;;;;;4970280;28;20520;-66
2023/05/05 02:45:34;;;;;;;3.83;2.13;;;11.70;99.90;;;;;;4973300;28;20444;-66
2023/05/05 02:48:03;;;;;;;3.63;2.50;;;11.70;99.90;;;;;;4973186;28;21044;-66
2023/05/05 02:50:30;;;;;;;5.57;2.30;;;11.80;99.90;;;;;;4972901;28;20185;-66
2023/05/05 02:52:57;;;;;;;3.93;2.37;;;11.80;99.90;;;;;;4965297;28;20503;-66
2023/05/05 02:55:23;;;;;;;5.90;2.63;;;11.80;99.90;;;;;;4972041;28;20431;-66
2023/05/05 02:58:12;;;;;;;5.37;2.90;;;11.80;99.90;;;;;;4971381;28;20423;-66
2023/05/05 03:01:10;;;;;;;4.87;3.00;;;11.80;99.90;;;;;;4964729;28;20181;-67
2023/05/05 03:03:58;;;;;;;4.87;2.80;;;11.90;99.90;;;;;;4964710;28;20430;-67
2023/05/05 03:06:27;;;;;;;6.07;2.93;;;11.80;99.90;;;;;;4950730;28;20491;-66
2023/05/05 03:09:06;;;;;;;9.53;3.50;;;11.80;99.90;;;;;;4971487;28;20474;-66
2023/05/05 03:11:37;;;;;;;5.80;3.10;;;11.80;99.90;;;;;;4971612;28;20415;-66
2023/05/05 03:14:17;;;;;;;5.30;2.70;;;11.80;99.90;;;;;;4958677;28;20651;-66
2023/05/05 03:16:45;;;;;;;4.30;2.70;;;11.90;99.90;;;;;;4972582;28;20424;-67
2023/05/05 03:19:13;;;;;;;5.43;2.87;;;11.90;99.90;;;;;;4972195;28;20474;-67
2023/05/05 03:21:39;;;;;;;3.80;1.90;;;12.00;99.90;;;;;;4958930;28;20469;-67
2023/05/05 03:24:16;;;;;;;4.17;2.60;;;11.90;99.90;;;;;;4962661;28;20518;-67
2023/05/05 03:26:43;;;;;;;7.53;3.43;;;11.80;99.90;;;;;;4959579;28;20239;-67
2023/05/05 03:29:09;;;;;;;4.70;2.77;;;11.80;99.90;;;;;;4971827;28;20470;-67
2023/05/05 03:31:35;;;;;;;4.63;3.07;;;11.80;99.90;;;;;;4971696;28;20416;-66
2023/05/05 03:34:00;;;;;;;7.03;2.60;;;11.80;99.90;;;;;;4956178;28;20539;-67
2023/05/05 03:36:26;;;;;;;3.67;2.30;;;11.80;99.90;;;;;;4958700;28;20251;-66
2023/05/05 03:38:52;;;;;;;4.10;2.97;;;11.90;99.90;;;;;;4972080;28;20554;-66
2023/05/05 03:41:18;;;;;;;6.53;2.83;;;12.00;99.90;;;;;;4971533;28;20204;-66
2023/05/05 03:43:44;;;;;;;5.87;2.93;;;11.90;99.90;;;;;;4971261;28;20239;-66
2023/05/05 03:46:09;;;;;;;4.53;2.87;;;12.00;99.90;;;;;;4971816;28;20975;-66
2023/05/05 03:48:35;;;;;;;5.83;3.30;;;12.00;99.90;;;;;;4972167;28;20177;-66
2023/05/05 03:51:00;;;;;;;4.03;2.40;;;12.10;99.90;;;;;;4969180;28;20524;-66
2023/05/05 03:53:26;;;;;;;6.67;3.80;;;12.10;99.90;;;;;;4963990;28;20263;-66
2023/05/05 03:55:52;;;;;;;7.60;3.57;;;12.20;99.90;;;;;;4971483;28;20626;-66
2023/05/05 03:58:17;;;;;;;8.20;2.90;;;12.20;99.90;;;;;;4964261;28;20177;-66
2023/05/05 04:00:43;;;;;;;6.23;2.80;;;12.20;99.90;;;;;;4964116;28;20260;-66
2023/05/05 04:03:09;;;;;;;5.40;2.90;;;12.30;99.90;;;;;;4965179;28;20184;-66
2023/05/05 04:05:35;;;;;;;4.00;2.30;;;12.30;99.90;;;;;;4966495;28;20187;-67
2023/05/05 04:08:02;;;;;;;5.87;1.90;;;12.30;99.90;;;;;;4972459;28;20611;-66
2023/05/05 04:10:31;;;;;;;4.40;2.80;;;12.40;99.90;;;;;;4970289;28;20181;-67
2023/05/05 04:12:56;;;;;;;5.30;3.03;;;12.40;99.90;;;;;;4961121;28;20511;-67
2023/05/05 04:15:22;;;;;;;4.40;2.37;;;12.40;99.90;;;;;;4970282;28;20491;-66
2023/05/05 04:17:47;;;;;;;3.40;2.20;;;12.40;99.90;;;;;;4971997;28;21041;-67
2023/05/05 04:20:13;;;;;;;6.67;2.80;;;12.50;99.90;;;;;;4968779;28;20271;-67
2023/05/05 04:22:39;;;;;;;4.57;2.67;;;12.50;99.90;;;;;;4954484;28;20182;-67
2023/05/05 04:25:05;;;;;;;5.17;3.10;;;12.50;99.90;;;;;;4970799;28;20192;-67
2023/05/05 04:27:31;;;;;;;5.30;3.13;;;12.50;99.90;;;;;;4975343;28;20208;-67
2023/05/05 04:29:56;;;;;;;5.40;3.47;;;12.60;99.90;;;;;;4960695;28;20448;-67
2023/05/05 04:32:22;;;;;;;3.23;2.27;;;12.60;99.90;;;;;;4972421;28;20189;-67
2023/05/05 04:34:48;;;;;;;5.20;2.60;;;12.70;99.90;;;;;;4956946;28;20536;-67
2023/05/05 04:37:13;;;;;;;5.20;2.33;;;12.80;99.90;;;;;;4963092;28;20223;-67
2023/05/05 04:39:40;;;;;;;4.20;2.17;;;12.90;99.90;;;;;;4975057;28;20648;-66
2023/05/05 04:42:06;;;;;;;3.93;1.87;;;12.90;99.90;;;;;;4967183;28;20191;-66
2023/05/05 04:44:32;;;;;;;4.20;2.23;;;13.00;99.90;;;;;;4974740;28;20427;-66
2023/05/05 04:46:59;;;;;;;3.43;1.80;;;13.10;99.90;;;;;;4974781;28;20529;-66
2023/05/05 04:49:27;;;;;;;2.70;2.07;;;13.10;99.90;;;;;;4970374;28;20431;-66
2023/05/05 04:51:53;;;;;;;3.57;1.93;;;13.20;99.90;;;;;;4971546;28;20714;-66
2023/05/05 04:54:19;;;;;;;4.07;2.40;;;13.20;99.90;;;;;;4970578;28;20469;-67
2023/05/05 04:56:44;;;;;;;5.20;2.47;;;13.30;99.90;;;;;;4974518;28;20188;-66
2023/05/05 04:59:10;;;;;;;4.33;2.40;;;13.30;99.90;;;;;;4964376;28;20193;-67
2023/05/05 05:01:35;;;;;;;3.93;1.70;;;13.30;99.90;;;;;;4970791;28;20609;-67
2023/05/05 05:04:01;;;;;;;9.50;2.20;;;13.30;99.90;;;;;;4974129;28;20216;-66
2023/05/05 05:06:28;;;;;;;7.13;2.20;;;13.30;99.90;;;;;;4974759;28;20548;-67
2023/05/05 05:08:53;;;;;;;4.60;2.53;;;13.30;99.90;;;;;;4974456;28;20543;-66
2023/05/05 05:11:20;;;;;;;2.87;1.63;;;13.20;99.90;;;;;;4974463;28;20430;-66
2023/05/05 05:13:46;;;;;;;3.13;1.67;;;13.20;99.90;;;;;;4972222;28;20262;-66
2023/05/05 05:16:12;;;;;;;3.87;2.20;;;13.20;99.90;;;;;;4974420;28;20448;-66
2023/05/05 05:18:38;;;;;;;4.53;2.50;;;13.20;99.90;;;;;;4963978;28;20256;-67
2023/05/05 05:21:03;;;;;;;2.57;1.70;;;13.20;99.90;;;;;;4947865;28;20653;-66
2023/05/05 05:23:29;;;;;;;3.77;2.10;;;13.10;99.90;;;;;;4968125;28;20685;-67
2023/05/05 05:25:56;;;;;;;4.60;1.93;;;13.10;99.90;;;;;;4973347;28;20211;-66
2023/05/05 05:28:21;;;;;;;5.30;2.37;;;13.10;99.90;;;;;;4973513;28;20426;-66
2023/05/05 05:30:47;;;;;;;4.23;1.43;;;13.20;99.90;;;;;;4969324;28;20416;-66
2023/05/05 05:33:12;;;;;;;3.03;1.87;;;13.20;99.90;;;;;;4959721;28;20182;-66
2023/05/05 05:35:38;;;;;;;5.20;2.43;;;13.30;99.90;;;;;;4967270;28;20582;-66
2023/05/05 05:38:04;;;;;;;5.17;1.70;;;13.40;99.90;;;;;;4973653;28;20184;-66
2023/05/05 05:40:30;;;;;;;3.50;1.97;;;13.60;99.90;;;;;;4973062;28;20512;-67
2023/05/05 05:42:56;;;;;;;13.83;1.90;;;13.90;99.90;;;;;;4973534;28;20561;-66
2023/05/05 05:45:21;;;;;;;3.70;1.90;;;14.10;99.90;;;;;;4973391;28;20474;-67
2023/05/05 05:47:47;;;;;;;2.80;1.67;;;14.30;99.90;;;;;;4973116;28;20188;-67
2023/05/05 05:50:13;;;;;;;3.07;1.70;;;14.50;99.90;;;;;;4973195;28;20188;-67
2023/05/05 05:52:39;;;;;;;4.70;1.83;;;14.80;99.90;;;;;;4964739;28;20460;-66
2023/05/05 05:55:06;;;;;;;2.03;1.10;;;15.00;99.90;;;;;;4973076;28;20200;-66
2023/05/05 05:57:31;;;;;;;2.97;1.73;;;15.20;99.90;;;;;;4973383;28;20189;-67
2023/05/05 05:59:57;;;;;;;10.03;1.87;;;15.30;99.90;;;;;;4971240;28;20479;-67
2023/05/05 06:02:23;;;;;;;2.87;1.80;;;15.40;99.90;;;;;;4962396;28;20185;-66
2023/05/05 06:04:48;;;;;;;1.77;1.00;;;15.50;99.90;;;;;;4972703;28;20185;-66
2023/05/05 06:07:14;;;;;;;2.87;1.53;;;15.60;99.90;;;;;;4972369;28;20247;-66
2023/05/05 06:09:40;;;;;;;5.73;2.63;;;15.80;99.90;;;;;;4972995;28;20685;-66
2023/05/05 06:12:06;;;;;;;5.33;2.07;;;15.90;99.90;;;;;;4971797;28;20177;-66
2023/05/05 06:14:31;;;;;;;4.40;2.10;;;16.10;99.90;;;;;;4971911;28;20915;-66
2023/05/05 06:16:57;;;;;;;2.17;1.23;;;16.20;99.90;;;;;;4968871;28;20665;-67
2023/05/05 06:19:22;;;;;;;2.43;1.30;;;16.30;99.90;;;;;;4970192;28;20271;-66
2023/05/05 06:21:48;;;;;;;3.43;1.50;;;16.40;99.90;;;;;;4962333;28;20267;-67
2023/05/05 06:24:13;;;;;;;5.00;2.27;;;16.40;99.90;;;;;;4968758;28;20267;-66
2023/05/05 06:26:39;;;;;;;2.23;1.60;;;16.40;99.90;;;;;;4972646;28;20498;-66
2023/05/05 06:29:05;;;;;;;4.33;1.43;;;16.50;99.90;;;;;;4958745;28;20187;-66
2023/05/05 06:31:31;;;;;;;3.27;1.43;;;16.50;99.90;;;;;;4959734;28;20228;-66
2023/05/05 06:33:56;;;;;;;6.80;1.83;;;16.50;99.90;;;;;;4960117;28;20632;-66
2023/05/05 06:36:22;;;;;;;2.40;1.30;;;16.60;99.90;;;;;;4957951;28;20241;-67
2023/05/05 06:38:49;;;;;;;2.40;1.17;;;16.60;99.90;;;;;;4972848;28;20633;-66
2023/05/05 06:41:14;;;;;;;5.53;2.17;;;16.70;99.90;;;;;;4972380;28;20545;-67
2023/05/05 06:43:41;;;;;;;3.77;1.87;;;16.70;99.90;;;;;;4971099;28;20466;-67
2023/05/05 06:46:07;;;;;;;3.73;1.40;;;16.70;99.90;;;;;;4971782;28;20344;-66
2023/05/05 06:48:33;;;;;;;3.20;1.23;;;16.80;99.90;;;;;;4972569;28;20491;-66
2023/05/05 06:50:58;;;;;;;2.40;1.37;;;16.80;99.90;;;;;;4968855;28;20626;-67
2023/05/05 06:53:24;;;;;;;2.90;1.20;;;16.90;99.90;;;;;;4969931;28;20257;-66
2023/05/05 06:55:50;;;;;;;1.77;1.10;;;16.90;99.90;;;;;;4971993;28;20188;-67
2023/05/05 06:58:15;;;;;;;3.40;1.50;;;16.90;99.90;;;;;;4968360;28;20185;-66
2023/05/05 07:00:41;;;;;;;1.80;0.93;;;17.00;99.90;;;;;;4969098;28;20194;-67
2023/05/05 07:03:07;;;;;;;6.50;1.40;;;17.00;99.90;;;;;;4970946;28;20549;-67
2023/05/05 07:05:32;;;;;;;3.10;1.33;;;17.10;99.90;;;;;;4971050;28;20184;-66
2023/05/05 07:07:58;;;;;;;3.10;1.30;;;17.10;99.90;;;;;;4966150;28;20292;-67
2023/05/05 07:10:25;;;;;;;3.47;1.40;;;17.10;99.90;;;;;;4971525;28;20207;-66
2023/05/05 07:12:51;;;;;;;3.97;2.20;;;17.10;99.90;;;;;;4971579;28;20229;-67
2023/05/05 07:15:17;;;;;;;2.47;1.17;;;17.10;99.90;;;;;;4969995;28;20424;-66
2023/05/05 07:17:43;;;;;;;2.60;1.30;;;17.00;99.90;;;;;;4971304;28;20431;-66
2023/05/05 07:20:09;;;;;;;6.70;1.30;;;17.00;99.90;;;;;;4969790;28;20431;-67
2023/05/05 07:22:35;;;;;;;2.80;1.40;;;16.80;99.90;;;;;;4959150;28;20448;-66
2023/05/05 07:25:02;;;;;;;2.17;1.27;;;16.90;99.90;;;;;;4969440;28;20470;-66
2023/05/05 07:27:28;;;;;;;5.70;1.93;;;16.80;99.90;;;;;;4971623;28;20208;-66
2023/05/05 07:29:54;;;;;;;2.20;1.10;;;16.60;99.90;;;;;;4971070;28;20732;-66
2023/05/05 07:32:19;;;;;;;3.20;1.80;;;16.40;99.90;;;;;;4968653;28;20424;-66
2023/05/05 07:34:45;;;;;;;2.33;1.50;;;16.30;99.90;;;;;;4958502;28;20277;-66
2023/05/05 07:37:11;;;;;;;3.63;1.97;;;16.20;99.90;;;;;;4965507;28;20492;-66
2023/05/05 07:39:37;;;;;;;4.00;2.10;;;16.10;99.90;;;;;;4971670;28;20276;-66
2023/05/05 07:42:02;;;;;;;3.27;2.00;;;16.00;99.90;;;;;;4970878;28;20470;-66
2023/05/05 07:44:28;;;;;;;3.60;1.43;;;15.90;99.90;;;;;;4970895;28;20239;-66
2023/05/05 07:46:54;;;;;;;5.90;1.63;;;15.90;99.90;;;;;;4970956;28;20295;-66
2023/05/05 07:49:20;;;;;;;8.00;2.00;;;15.80;99.90;;;;;;4971184;28;20177;-66
2023/05/05 07:51:48;;;;;;;2.73;1.47;;;15.70;99.90;;;;;;4968190;28;20180;-66
2023/05/05 07:54:15;;;;;;;3.67;2.10;;;15.70;99.90;;;;;;4966147;28;20519;-66
2023/05/05 07:56:41;;;;;;;4.60;2.67;;;15.60;99.90;;;;;;4973011;28;20431;-66
2023/05/05 07:59:06;;;;;;;7.50;2.33;;;15.60;99.90;;;;;;4971732;28;20416;-66
2023/05/05 08:01:32;;;;;;;3.07;2.30;;;15.40;99.90;;;;;;4968602;28;20192;-66
2023/05/05 08:03:57;;;;;;;4.73;2.63;;;15.40;99.90;;;;;;4974940;28;20227;-66
2023/05/05 08:06:24;;;;;;;5.33;2.40;;;15.30;99.90;;;;;;4975054;28;20207;-67
2023/05/05 08:08:53;;;;;;;3.13;1.87;;;15.30;99.90;;;;;;4974995;28;20191;-67
2023/05/05 08:11:20;;;;;;;3.87;2.27;;;15.30;99.90;;;;;;4974807;28;20454;-67
2023/05/05 08:13:46;;;;;;;7.00;2.53;;;15.40;99.90;;;;;;4973130;28;20421;-67
2023/05/05 08:16:12;;;;;;;3.77;2.67;;;15.50;99.90;;;;;;4974518;28;20423;-66
2023/05/05 08:18:38;;;;;;;3.90;2.53;;;15.50;99.90;;;;;;4974863;28;20656;-66
2023/05/05 08:21:05;;;;;;;4.03;2.40;;;15.60;99.90;;;;;;4970832;28;20183;-66
2023/05/05 08:23:31;;;;;;;5.30;2.57;;;15.60;99.90;;;;;;4970337;28;20456;-66
2023/05/05 08:25:57;;;;;;;3.17;1.70;;;15.70;99.90;;;;;;4973708;28;20529;-66
2023/05/05 08:28:22;;;;;;;4.70;2.70;;;15.70;99.90;;;;;;4974675;28;20441;-66
2023/05/05 08:30:48;;;;;;;5.53;2.60;;;15.70;99.90;;;;;;4974735;28;20200;-66
2023/05/05 08:33:14;;;;;;;5.63;2.07;;;15.70;99.90;;;;;;4965850;28;20180;-65
2023/05/05 08:35:41;;;;;;;5.27;2.43;;;15.70;99.90;;;;;;4963415;28;20173;-66
2023/05/05 08:38:07;;;;;;;3.10;1.97;;;15.70;99.90;;;;;;4971149;28;20184;-66
2023/05/05 08:40:35;;;;;;;3.23;2.10;;;15.80;99.90;;;;;;4970821;28;20454;-66
2023/05/05 08:43:01;;;;;;;2.70;1.80;;;16.00;99.90;;;;;;4973568;28;20602;-66
2023/05/05 08:45:28;;;;;;;6.90;2.47;;;16.20;99.90;;;;;;4973546;28;20445;-67
2023/05/05 08:47:56;;;;;;;7.60;3.30;;;16.40;99.90;;;;;;4974316;28;20227;-66
2023/05/05 08:50:26;;;;;;;3.80;2.00;;;16.70;99.90;;;;;;4973922;28;20419;-67
2023/05/05 08:53:15;;;;;;;3.50;1.83;;;16.90;99.90;;;;;;4965898;28;20518;-67
2023/05/05 08:55:55;;;;;;;3.50;1.87;;;17.20;99.90;;;;;;4968542;28;20446;-67
2023/05/05 08:58:24;;;;;;;4.30;2.43;;;17.20;99.90;;;;;;4973001;28;20918;-67
2023/05/05 09:00:51;;;;;;;5.27;2.30;;;17.30;99.90;;;;;;4970379;28;20929;-67
2023/05/05 09:03:17;;;;;;;6.40;1.90;;;17.30;99.90;;;;;;4972846;28;20466;-67
2023/05/05 09:05:43;;;;;;;2.20;1.23;;;17.30;99.90;;;;;;4972769;28;20844;-66
2023/05/05 09:08:12;;;;;;;2.70;1.60;;;17.40;99.90;;;;;;4973875;28;20420;-66
2023/05/05 09:10:41;;;;;;;4.03;1.93;;;17.60;99.90;;;;;;4972203;28;20495;-66
2023/05/05 09:13:07;;;;;;;14.90;1.80;;;17.60;99.90;;;;;;4973792;28;20416;-66
2023/05/05 09:15:33;;;;;;;9.70;2.10;;;17.70;99.90;;;;;;4972128;28;20913;-66
2023/05/05 09:18:00;;;;;;;3.47;1.90;;;17.80;99.90;;;;;;4971642;28;20339;-67
2023/05/05 09:20:33;;;;;;;2.80;1.77;;;18.00;99.90;;;;;;4966217;28;20545;-66
2023/05/05 09:23:13;;;;;;;4.80;2.40;;;18.20;99.90;;;;;;4963547;28;20423;-67
2023/05/05 09:25:40;;;;;;;7.10;2.80;;;18.60;99.90;;;;;;4966045;28;21243;-67
2023/05/05 09:28:13;;;;;;;2.83;1.37;;;19.40;99.90;;;;;;4972939;28;20420;-67
2023/05/05 09:30:40;;;;;;;3.53;1.80;;;19.80;99.90;;;;;;4957144;28;20411;-67
2023/05/05 09:33:06;;;;;;;3.20;1.20;;;20.60;99.90;;;;;;4966195;28;20445;-67
2023/05/05 09:35:48;;;;;;;3.53;1.70;;;20.80;99.90;;;;;;4964376;28;20758;-67
2023/05/05 09:38:14;;;;;;;2.20;1.30;;;21.00;99.90;;;;;;4969973;28;20486;-67
2023/05/05 09:40:51;;;;;;;2.13;1.50;;;21.20;98.60;;;;;;4972727;28;20936;-67
2023/05/05 09:43:18;;;;;;;2.33;1.33;;;21.30;97.70;;;;;;4972699;28;20183;-67
2023/05/05 09:45:44;;;;;;;2.53;1.40;;;21.40;98.90;;;;;;4973047;28;20467;-67
2023/05/05 09:48:27;;;;;;;3.23;1.83;;;21.40;98.80;;;;;;4973164;28;20967;-67
2023/05/05 09:50:53;;;;;;;3.13;1.33;;;21.20;98.20;;;;;;4971997;28;20454;-67
2023/05/05 09:53:19;;;;;;;2.37;1.20;;;21.10;98.60;;;;;;4968050;28;20416;-66
2023/05/05 09:55:55;;;;;;;2.83;1.40;;;21.30;97.70;;;;;;4971181;28;21385;-65
2023/05/05 09:58:24;;;;;;;2.17;1.00;;;21.10;97.40;;;;;;4972008;28;20188;-65
2023/05/05 10:00:50;;;;;;;2.10;1.20;;;20.90;96.60;;;;;;4969127;28;20902;-65
2023/05/05 10:03:16;;;;;;;2.20;1.30;;;20.60;97.10;;;;;;4972694;28;20425;-65
2023/05/05 10:05:47;;;;;;;1.90;0.80;;;20.20;97.30;;;;;;4972870;28;20428;-65
2023/05/05 10:08:13;;;;;;;1.90;1.00;;;20.10;98.60;;;;;;4973136;28;20192;-66
2023/05/05 10:11:05;;;;;;;2.80;1.03;;;19.90;97.90;;;;;;4972185;28;20434;-65
2023/05/05 10:13:35;;;;;;;2.37;1.20;;;19.90;98.10;;;;;;4965232;28;20203;-65
2023/05/05 10:16:02;;;;;;;2.80;1.13;;;19.80;98.00;;;;;;4972790;28;20508;-65
2023/05/05 10:18:30;;;;;;;2.23;0.90;;;19.70;97.20;;;;;;4960447;28;20438;-65
2023/05/05 10:21:03;;;;;;;3.20;1.30;;;19.60;98.00;;;;;;4966532;28;20424;-65
2023/05/05 10:24:02;;;;;;;1.83;0.97;;;19.50;97.70;;;;;;4966670;28;20427;-65
2023/05/05 10:26:33;;;;;;;2.37;1.00;;;19.30;99.00;;;;;;4970666;28;20980;-65
2023/05/05 10:29:01;;;;;;;1.80;1.00;;;19.10;99.60;;;;;;4972496;28;20420;-65
2023/05/05 10:31:36;;;;;;;3.30;1.13;;;18.90;99.80;;;;;;4972264;28;20428;-65
2023/05/05 10:34:33;;;;;;;4.00;1.33;;;18.80;99.90;;;;;;4962276;28;20430;-65
2023/05/05 10:36:59;;;;;;;2.90;1.30;;;18.80;99.90;;;;;;4969414;28;20512;-65
2023/05/05 10:39:26;;;;;;;3.03;1.43;;;18.50;99.90;;;;;;4971915;28;20510;-65
2023/05/05 10:41:52;;;;;;;5.20;1.63;;;18.50;99.90;;;;;;4967515;28;20312;-65
2023/05/05 10:44:18;;;;;;;3.33;1.63;;;18.50;99.90;;;;;;4972002;28;20485;-65
2023/05/05 10:46:44;;;;;;;3.67;1.40;;;18.40;99.90;;;;;;4972234;28;20467;-65
2023/05/05 10:49:26;;;;;;;4.90;2.20;;;18.30;99.90;;;;;;4971154;28;20199;-65
2023/05/05 10:51:59;;;;;;;2.13;1.40;;;18.30;99.90;;;;;;4951934;28;20421;-66
2023/05/05 10:54:50;;;;;;;3.73;1.90;;;18.30;99.90;;;;;;4965260;28;20436;-65
2023/05/05 10:57:19;;;;;;;5.17;2.60;;;18.20;99.90;;;;;;4971609;28;20483;-65
2023/05/05 10:59:46;;;;;;;3.10;1.53;;;18.30;99.90;;;;;;4969707;28;20510;-66
2023/05/05 11:02:28;;;;;;;2.40;1.53;;;18.40;99.90;;;;;;4968407;28;20766;-66
2023/05/05 11:05:05;;;;;;;2.17;1.50;;;18.50;99.90;;;;;;4971478;28;20767;-65
2023/05/05 11:07:33;;;;;;;3.10;1.70;;;18.80;99.90;;;;;;4972161;28;20462;-66
2023/05/05 11:10:06;;;;;;;13.60;2.00;;;18.90;99.90;;;;;;4971648;28;20474;-65
2023/05/05 11:12:52;;;;;;;2.77;1.40;;;19.20;99.90;;;;;;4971083;28;20900;-67
2023/05/05 11:15:30;;;;;;;3.63;2.13;;;19.50;99.90;;;;;;4970022;28;20519;-67
2023/05/05 11:17:57;;;;;;;2.93;1.60;;;19.80;99.90;;;;;;4969883;28;20434;-67
2023/05/05 11:20:35;;;;;;;4.47;1.70;;;20.00;99.90;;;;;;4965648;28;20480;-69
2023/05/05 11:23:03;;;;;;;2.17;1.37;;;20.20;99.90;;;;;;4953707;28;20435;-69
2023/05/05 11:25:35;;;;;;;3.00;1.03;;;20.40;99.90;;;;;;4969520;28;20427;-67
2023/05/05 11:28:07;;;;;;;3.77;1.73;;;20.50;99.90;;;;;;4971145;28;20463;-67
2023/05/05 11:30:33;;;;;;;2.67;1.43;;;20.50;99.20;;;;;;4969917;28;20510;-68
2023/05/05 11:33:27;;;;;;;2.80;1.40;;;20.70;99.30;;;;;;4965897;28;20420;-67
2023/05/05 11:36:03;;;;;;;2.67;1.50;;;21.10;98.60;;;;;;4952189;28;20528;-67
2023/05/05 11:38:35;;;;;;;5.70;1.40;;;21.20;99.00;;;;;;4970462;28;20445;-68
2023/05/05 11:41:15;;;;;;;4.53;1.90;;;21.10;97.70;;;;;;4970369;28;20415;-67
2023/05/05 11:43:41;;;;;;;1.93;0.97;;;21.30;98.40;;;;;;4971079;28;20426;-68
2023/05/05 11:46:11;;;;;;;11.70;1.60;;;20.90;97.10;;;;;;4971082;28;20479;-67
2023/05/05 11:48:47;;;;;;;5.87;1.90;;;21.10;98.10;;;;;;4971396;28;20797;-68
2023/05/05 11:51:13;;;;;;;2.60;1.40;;;21.20;97.90;;;;;;4969639;28;20422;-67
2023/05/05 11:53:42;;;;;;;6.83;1.07;;;21.20;97.80;;;;;;4967251;28;20442;-67
2023/05/05 11:56:09;;;;;;;3.27;1.33;;;21.50;96.10;;;;;;4970214;28;20446;-67
2023/05/05 11:58:35;;;;;;;2.63;1.80;;;21.40;97.00;;;;;;4968526;28;20450;-67
2023/05/05 12:01:07;;;;;;;5.90;1.30;;;21.50;96.60;;;;;;4966569;28;21095;-67
2023/05/05 12:03:34;;;;;;;4.60;1.80;;;21.40;96.50;;;;;;4970719;28;20188;-67
2023/05/05 12:06:01;;;;;;;4.20;1.50;;;21.50;95.50;;;;;;4970798;28;20502;-67
2023/05/05 12:08:27;;;;;;;1.63;0.90;;;21.40;96.80;;;;;;4971033;28;20423;-67
2023/05/05 12:11:05;;;;;;;5.33;1.17;;;21.40;94.80;;;;;;4969626;28;20422;-67
2023/05/05 12:13:31;;;;;;;1.90;1.10;;;21.20;95.20;;;;;;4969287;28;20435;-67
2023/05/05 12:16:08;;;;;;;6.83;0.93;;;21.10;96.00;;;;;;4971520;28;20420;-67
2023/05/05 12:18:33;;;;;;;3.13;1.40;;;21.20;94.90;;;;;;4961886;28;20186;-67
2023/05/05 12:20:59;;;;;;;2.57;0.83;;;20.90;95.40;;;;;;4963068;28;20775;-67
2023/05/05 12:23:28;;;;;;;2.10;1.10;;;20.80;96.50;;;;;;4960428;28;20194;-67
2023/05/05 12:25:54;;;;;;;3.93;1.63;;;20.60;95.40;;;;;;4964356;28;20180;-67
2023/05/05 12:28:20;;;;;;;2.37;1.43;;;20.70;94.90;;;;;;4970708;28;20431;-68
2023/05/05 12:30:58;;;;;;;3.30;1.17;;;20.80;94.80;;;;;;4971134;28;20801;-68
2023/05/05 12:33:24;;;;;;;2.07;1.07;;;20.60;95.20;;;;;;4961601;28;20181;-68
2023/05/05 12:35:50;;;;;;;2.80;1.03;;;20.50;95.80;;;;;;4959714;28;20560;-68
2023/05/05 12:38:16;;;;;;;2.40;1.10;;;20.50;95.60;;;;;;4968350;28;20519;-69
2023/05/05 12:40:43;;;;;;;2.07;1.27;;;20.70;96.60;;;;;;4970898;28;20204;-69
2023/05/05 12:43:21;;;;;;;1.83;0.93;;;20.90;96.80;;;;;;4973150;28;20180;-69
2023/05/05 12:45:48;;;;;;;4.37;1.30;;;21.20;96.20;;;;;;4974506;28;20447;-69
2023/05/05 12:48:22;;;;;;;1.63;0.80;;;21.60;96.90;;;;;;4974907;28;20431;-69
2023/05/05 12:50:48;;;;;;;9.30;1.00;;;21.70;95.60;;;;;;4972489;28;20765;-69
2023/05/05 12:53:21;;;;;;;3.67;1.40;;;21.70;95.50;;;;;;4966162;28;20423;-69